Time;durP1;ratioP1;P1;durP2;ratioP2;P2;SDS_P1;SDS_P2;PMS_P1;PMS_P2;Temp;Humidity;BMP_temperature;BMP_pressure;BME280_temperature;BME280_humidity;BME280_pressure;Samples;Min_cycle;Max_cycle;Signal;HPM_P1;HPM_P2
2023/01/10 00:02:00;;;;;;;;;;;20.90;44.10;;;;;;5072787;28;19920;-63
2023/01/10 00:04:28;;;;;;;;;;;20.90;44.10;;;;;;5072746;28;19926;-64
2023/01/10 00:06:55;;;;;;;;;;;20.90;44.10;;;;;;5073087;28;20326;-63
2023/01/10 00:09:22;;;;;;;;;;;20.90;44.10;;;;;;5073407;28;20010;-63
2023/01/10 00:14:36;;;;;;;;;;;20.90;44.00;;;;;;5072415;28;19920;-63
2023/01/10 00:17:03;;;;;;;;;;;20.80;44.00;;;;;;5073541;28;19920;-63
2023/01/10 00:19:31;;;;;;;;;;;20.80;43.90;;;;;;5072637;28;19920;-64
2023/01/10 00:22:03;;;;;;;;;;;20.80;43.90;;;;;;5072674;28;19966;-63
2023/01/10 00:24:30;;;;;;;;;;;20.90;44.00;;;;;;5073047;28;19920;-64
2023/01/10 00:26:58;;;;;;;;;;;20.80;43.90;;;;;;5072945;28;20022;-63
2023/01/10 00:29:30;;;;;;;;;;;20.80;43.90;;;;;;5072878;28;20441;-64
2023/01/10 00:31:57;;;;;;;;;;;20.80;43.80;;;;;;5073358;28;19920;-63
2023/01/10 00:34:23;;;;;;;;;;;20.80;43.80;;;;;;5072613;28;19927;-63
2023/01/10 00:36:50;;;;;;;;;;;20.80;43.80;;;;;;5076953;28;19920;-63
2023/01/10 00:39:21;;;;;;;;;;;20.80;43.80;;;;;;5076483;28;19920;-64
2023/01/10 00:44:34;;;;;;;;;;;20.80;43.80;;;;;;5076272;28;19927;-63
2023/01/10 00:47:01;;;;;;;;;;;20.80;43.80;;;;;;5077197;28;19921;-63
2023/01/10 00:49:28;;;;;;;;;;;20.80;43.70;;;;;;5076086;28;19931;-63
2023/01/10 00:51:57;;;;;;;;;;;20.70;43.60;;;;;;5077119;28;19921;-63
2023/01/10 00:54:24;;;;;;;;;;;20.70;43.60;;;;;;5076388;28;19920;-63
2023/01/10 00:56:51;;;;;;;;;;;20.80;43.60;;;;;;5076601;28;19927;-64
2023/01/10 00:59:18;;;;;;;;;;;20.70;43.60;;;;;;5076630;28;20367;-63
2023/01/10 01:01:45;;;;;;;;;;;20.80;43.60;;;;;;5076645;28;19968;-64
2023/01/10 01:04:12;;;;;;;;;;;20.80;43.60;;;;;;5076163;28;19943;-63
2023/01/10 01:06:39;;;;;;;;;;;20.80;43.60;;;;;;5076625;28;19925;-64
2023/01/10 01:09:06;;;;;;;;;;;20.80;43.60;;;;;;5075157;28;20390;-63
2023/01/10 01:11:32;;;;;;;;;;;20.70;43.50;;;;;;5075863;28;19967;-63
2023/01/10 01:13:59;;;;;;;;;;;20.70;43.50;;;;;;5076509;28;20015;-63
2023/01/10 01:16:26;;;;;;;;;;;20.70;43.50;;;;;;5075635;28;19920;-63
2023/01/10 01:18:53;;;;;;;;;;;20.70;43.50;;;;;;5093223;28;19920;-63
2023/01/10 01:21:20;;;;;;;;;;;20.70;43.50;;;;;;5096711;28;19920;-63
2023/01/10 01:23:47;;;;;;;;;;;20.70;43.50;;;;;;5096652;28;20371;-63
2023/01/10 01:26:14;;;;;;;;;;;20.70;43.40;;;;;;5096390;28;19920;-63
2023/01/10 01:28:41;;;;;;;;;;;20.70;43.40;;;;;;5090762;28;19934;-64
2023/01/10 01:31:08;;;;;;;;;;;20.70;43.40;;;;;;5076287;28;19924;-63
2023/01/10 01:33:36;;;;;;;;;;;20.70;43.40;;;;;;5075732;28;19920;-63
2023/01/10 01:36:06;;;;;;;;;;;20.70;43.40;;;;;;5075569;28;19920;-63
2023/01/10 01:38:33;;;;;;;;;;;20.70;43.30;;;;;;5075822;28;19924;-63
2023/01/10 01:41:00;;;;;;;;;;;20.70;43.40;;;;;;5075593;28;20291;-63
2023/01/10 01:43:28;;;;;;;;;;;20.70;43.30;;;;;;5080092;28;19927;-63
2023/01/10 01:45:57;;;;;;;;;;;20.70;43.40;;;;;;5095525;28;19919;-63
2023/01/10 01:48:37;;;;;;;;;;;20.70;43.40;;;;;;5095442;28;20330;-63
2023/01/10 01:51:12;;;;;;;;;;;20.70;43.40;;;;;;5094991;28;19920;-63
2023/01/10 01:53:47;;;;;;;;;;;20.70;43.40;;;;;;5094551;28;19955;-63
2023/01/10 01:56:24;;;;;;;;;;;20.70;43.40;;;;;;5095477;28;19967;-63
2023/01/10 01:59:00;;;;;;;;;;;20.70;43.40;;;;;;5095211;28;19920;-63
2023/01/10 02:01:28;;;;;;;;;;;20.70;43.40;;;;;;5095567;28;19924;-63
2023/01/10 02:04:00;;;;;;;;;;;20.70;43.40;;;;;;5095361;28;19920;-63
2023/01/10 02:06:27;;;;;;;;;;;20.70;43.40;;;;;;5095322;28;20024;-63
2023/01/10 02:09:00;;;;;;;;;;;20.70;43.40;;;;;;5095887;28;20010;-63
2023/01/10 02:11:28;;;;;;;;;;;20.70;43.40;;;;;;5094826;28;19920;-63
2023/01/10 02:13:56;;;;;;;;;;;20.70;43.40;;;;;;5094386;28;20018;-63
2023/01/10 02:16:23;;;;;;;;;;;20.70;43.70;;;;;;5094960;28;20367;-63
2023/01/10 02:18:50;;;;;;;;;;;20.70;43.40;;;;;;5074416;28;19920;-64
2023/01/10 02:21:30;;;;;;;;;;;20.70;43.40;;;;;;5075522;28;20299;-64
2023/01/10 02:24:17;;;;;;;;;;;20.70;43.40;;;;;;5075010;28;19956;-63
2023/01/10 02:26:49;;;;;;;;;;;20.60;43.30;;;;;;5075574;28;20306;-64
2023/01/10 02:29:36;;;;;;;;;;;20.70;43.40;;;;;;5074904;28;19963;-63
2023/01/10 02:32:19;;;;;;;;;;;20.70;43.40;;;;;;5074565;28;19927;-63
2023/01/10 02:35:20;;;;;;;;;;;20.70;43.40;;;;;;5074429;28;19929;-63
2023/01/10 02:38:07;;;;;;;;;;;20.70;43.30;;;;;;5073303;28;19927;-63
2023/01/10 02:40:46;;;;;;;;;;;20.60;43.80;;;;;;5074468;28;20015;-63
2023/01/10 02:43:15;;;;;;;;;;;20.70;43.30;;;;;;5074295;28;20007;-63
2023/01/10 02:45:50;;;;;;;;;;;20.60;43.20;;;;;;5074690;28;20382;-63
2023/01/10 02:48:17;;;;;;;;;;;20.60;43.20;;;;;;5074227;28;19920;-63
2023/01/10 02:50:49;;;;;;;;;;;20.60;43.20;;;;;;5073841;28;20357;-63
2023/01/10 02:53:25;;;;;;;;;;;20.60;43.20;;;;;;5074799;28;19920;-63
2023/01/10 02:56:07;;;;;;;;;;;20.60;43.20;;;;;;5074864;28;20027;-63
2023/01/10 02:58:53;;;;;;;;;;;20.60;43.20;;;;;;5072501;28;19924;-63
2023/01/10 03:01:38;;;;;;;;;;;20.60;43.10;;;;;;5074129;28;19920;-64
2023/01/10 03:04:15;;;;;;;;;;;20.60;43.10;;;;;;5074160;28;20338;-64
2023/01/10 03:06:46;;;;;;;;;;;20.60;43.10;;;;;;5074123;28;19920;-63
2023/01/10 03:09:18;;;;;;;;;;;20.60;43.10;;;;;;5074353;28;19926;-63
2023/01/10 03:11:46;;;;;;;;;;;20.60;43.10;;;;;;5074083;28;19921;-63
2023/01/10 03:14:18;;;;;;;;;;;20.60;43.10;;;;;;5073990;28;19951;-63
2023/01/10 03:16:48;;;;;;;;;;;20.60;43.10;;;;;;5073449;28;19920;-63
2023/01/10 03:19:17;;;;;;;;;;;20.60;43.10;;;;;;5073136;28;20014;-63
2023/01/10 03:21:46;;;;;;;;;;;20.60;43.10;;;;;;5074041;28;19927;-63
2023/01/10 03:24:16;;;;;;;;;;;20.60;43.10;;;;;;5073962;28;20014;-63
2023/01/10 03:26:55;;;;;;;;;;;20.60;43.00;;;;;;5073753;28;19928;-63
2023/01/10 03:29:42;;;;;;;;;;;20.60;43.00;;;;;;5073833;28;20284;-63
2023/01/10 03:32:10;;;;;;;;;;;20.60;43.00;;;;;;5074089;28;19931;-63
2023/01/10 03:34:37;;;;;;;;;;;20.60;43.00;;;;;;5073320;28;20356;-63
2023/01/10 03:37:12;;;;;;;;;;;20.60;43.00;;;;;;5073647;28;20373;-63
2023/01/10 03:39:58;;;;;;;;;;;20.50;43.00;;;;;;5073237;28;20012;-63
2023/01/10 03:44:42;;;;;;;;;;;20.60;43.00;;;;;;5072857;28;20402;-63
2023/01/10 03:45:28;;;;;;;;;;;20.60;43.00;;;;;;5073620;28;19930;-63
2023/01/10 03:47:57;;;;;;;;;;;20.50;42.90;;;;;;5073395;28;20018;-63
2023/01/10 03:50:24;;;;;;;;;;;20.50;42.90;;;;;;5073447;28;20360;-65
2023/01/10 03:52:51;;;;;;;;;;;20.60;42.90;;;;;;5073313;28;19931;-66
2023/01/10 03:55:23;;;;;;;;;;;20.60;42.90;;;;;;5072747;28;19920;-66
2023/01/10 03:57:50;;;;;;;;;;;20.60;42.90;;;;;;5073428;28;20363;-66
2023/01/10 04:00:17;;;;;;;;;;;20.60;42.90;;;;;;5073317;28;19920;-66
2023/01/10 04:02:44;;;;;;;;;;;20.60;42.90;;;;;;5072844;28;20439;-66
2023/01/10 04:05:11;;;;;;;;;;;20.60;42.80;;;;;;5073427;28;19927;-66
2023/01/10 04:07:38;;;;;;;;;;;20.60;42.80;;;;;;5072267;28;19931;-66
2023/01/10 04:10:06;;;;;;;;;;;20.60;42.80;;;;;;5076202;28;20386;-67
2023/01/10 04:12:33;;;;;;;;;;;20.60;42.80;;;;;;5058988;28;19920;-63
2023/01/10 04:15:00;;;;;;;;;;;20.60;42.80;;;;;;5077252;28;19924;-63
2023/01/10 04:17:27;;;;;;;;;;;20.50;42.70;;;;;;5077089;28;20439;-63
2023/01/10 04:19:54;;;;;;;;;;;20.50;42.70;;;;;;5076906;28;19927;-63
2023/01/10 04:22:21;;;;;;;;;;;20.50;42.70;;;;;;5077485;28;19935;-63
2023/01/10 04:24:50;;;;;;;;;;;20.50;42.70;;;;;;5077317;28;19942;-63
2023/01/10 04:27:17;;;;;;;;;;;20.50;43.00;;;;;;5076154;28;19920;-63
2023/01/10 04:29:44;;;;;;;;;;;20.50;42.70;;;;;;5076652;28;19921;-63
2023/01/10 04:32:11;;;;;;;;;;;20.50;42.60;;;;;;5057437;28;19924;-64
2023/01/10 04:34:38;;;;;;;;;;;20.50;42.60;;;;;;5076653;28;20379;-63
2023/01/10 04:37:05;;;;;;;;;;;20.50;42.70;;;;;;5076434;28;20015;-64
2023/01/10 04:39:32;;;;;;;;;;;20.50;42.60;;;;;;5075950;28;19920;-63
2023/01/10 04:41:59;;;;;;;;;;;20.50;42.60;;;;;;5076684;28;20360;-63
2023/01/10 04:44:26;;;;;;;;;;;20.50;42.60;;;;;;5075811;28;19920;-63
2023/01/10 04:46:52;;;;;;;;;;;20.50;42.60;;;;;;5074920;28;19935;-63
2023/01/10 04:49:19;;;;;;;;;;;20.50;42.60;;;;;;5076053;28;19920;-63
2023/01/10 04:51:46;;;;;;;;;;;20.50;42.60;;;;;;5076756;28;20023;-63
2023/01/10 04:54:13;;;;;;;;;;;20.40;42.50;;;;;;5076195;28;20007;-64
2023/01/10 04:56:40;;;;;;;;;;;20.40;42.50;;;;;;5075894;28;19924;-63
2023/01/10 04:59:08;;;;;;;;;;;20.40;42.50;;;;;;5075833;28;19928;-63
2023/01/10 05:01:37;;;;;;;;;;;20.40;42.50;;;;;;5075622;28;19920;-63
2023/01/10 05:04:05;;;;;;;;;;;20.40;42.50;;;;;;5075515;28;20383;-63
2023/01/10 05:06:32;;;;;;;;;;;20.40;42.50;;;;;;5076400;28;19926;-63
2023/01/10 05:08:59;;;;;;;;;;;20.40;42.40;;;;;;5075156;28;19920;-63
2023/01/10 05:11:26;;;;;;;;;;;20.40;42.40;;;;;;5076305;28;20015;-63
2023/01/10 05:13:53;;;;;;;;;;;20.40;42.40;;;;;;5076537;28;20311;-63
2023/01/10 05:16:20;;;;;;;;;;;20.40;42.40;;;;;;5075763;28;19927;-63
2023/01/10 05:18:47;;;;;;;;;;;20.40;42.40;;;;;;5074938;28;19920;-64
2023/01/10 05:21:14;;;;;;;;;;;20.40;42.40;;;;;;5074090;28;20010;-63
2023/01/10 05:23:41;;;;;;;;;;;20.40;42.40;;;;;;5074568;28;19924;-63
2023/01/10 05:26:09;;;;;;;;;;;20.40;42.30;;;;;;5074508;28;19920;-63
2023/01/10 05:28:37;;;;;;;;;;;20.40;42.30;;;;;;5075685;28;19920;-63
2023/01/10 05:31:05;;;;;;;;;;;20.40;42.30;;;;;;5074987;28;19920;-63
2023/01/10 05:33:32;;;;;;;;;;;20.40;42.30;;;;;;5075586;28;19927;-63
2023/01/10 05:36:02;;;;;;;;;;;20.30;42.30;;;;;;5074795;28;19927;-63
2023/01/10 05:38:30;;;;;;;;;;;20.40;42.20;;;;;;5074798;28;20371;-62
2023/01/10 05:40:57;;;;;;;;;;;20.40;42.10;;;;;;5075715;28;19920;-63
2023/01/10 05:43:25;;;;;;;;;;;20.30;42.00;;;;;;5074193;28;19935;-65
2023/01/10 05:45:52;;;;;;;;;;;20.30;42.00;;;;;;5075128;28;19924;-65
2023/01/10 05:48:19;;;;;;;;;;;20.30;42.00;;;;;;5074544;28;19974;-65
2023/01/10 05:50:47;;;;;;;;;;;20.30;42.10;;;;;;5075439;28;19920;-65
2023/01/10 05:53:14;;;;;;;;;;;20.30;42.10;;;;;;5074767;28;19920;-65
2023/01/10 05:55:41;;;;;;;;;;;20.30;42.10;;;;;;5075110;28;19924;-63
2023/01/10 05:58:10;;;;;;;;;;;20.30;42.10;;;;;;5071713;28;20279;-63
2023/01/10 06:00:38;;;;;;;;;;;20.30;42.10;;;;;;5073966;28;20011;-65
2023/01/10 06:03:06;;;;;;;;;;;20.30;42.00;;;;;;5072329;28;20355;-65
2023/01/10 06:05:33;;;;;;;;;;;20.30;42.00;;;;;;5072596;28;19960;-65
2023/01/10 06:08:00;;;;;;;;;;;20.30;42.00;;;;;;5071669;28;19920;-63
2023/01/10 06:10:27;;;;;;;;;;;20.30;42.00;;;;;;5074888;28;19920;-63
2023/01/10 06:12:54;;;;;;;;;;;20.30;42.00;;;;;;5051287;28;20019;-63
2023/01/10 06:15:21;;;;;;;;;;;20.30;42.00;;;;;;5073145;28;19924;-63
2023/01/10 06:17:48;;;;;;;;;;;20.40;42.00;;;;;;5074282;28;20295;-61
2023/01/10 06:20:16;;;;;;;;;;;20.40;42.00;;;;;;5071647;28;19935;-66
2023/01/10 06:22:42;;;;;;;;;;;20.40;42.00;;;;;;5070961;28;19992;-67
2023/01/10 06:25:10;;;;;;;;;;;20.50;42.10;;;;;;5072026;28;20438;-66
2023/01/10 06:27:40;;;;;;;;;;;20.50;42.10;;;;;;5070796;28;20411;-66
2023/01/10 06:30:07;;;;;;;;;;;20.50;42.10;;;;;;5064785;28;19924;-67
2023/01/10 06:32:35;;;;;;;;;;;20.50;42.10;;;;;;5068406;28;20026;-66
2023/01/10 06:35:03;;;;;;;;;;;20.60;42.10;;;;;;5072502;28;19962;-67
2023/01/10 06:37:30;;;;;;;;;;;20.60;42.00;;;;;;5072089;28;19921;-67
2023/01/10 06:39:57;;;;;;;;;;;20.60;41.90;;;;;;5066786;28;19926;-64
2023/01/10 06:42:24;;;;;;;;;;;20.70;42.50;;;;;;5062108;28;20436;-65
2023/01/10 06:44:51;;;;;;;;;;;20.70;42.30;;;;;;5066271;28;19960;-63
2023/01/10 06:47:18;;;;;;;;;;;20.80;42.40;;;;;;5064008;28;20352;-67
2023/01/10 06:49:45;;;;;;;;;;;20.80;42.70;;;;;;5066189;28;19928;-66
2023/01/10 06:52:12;;;;;;;;;;;20.80;42.80;;;;;;5063089;28;20046;-65
2023/01/10 06:54:40;;;;;;;;;;;20.80;42.80;;;;;;5059621;28;19920;-65
2023/01/10 06:57:07;;;;;;;;;;;20.80;42.60;;;;;;5058045;28;19957;-65
2023/01/10 06:59:34;;;;;;;;;;;20.90;42.50;;;;;;5063042;28;19935;-64
2023/01/10 07:02:01;;;;;;;;;;;20.90;42.30;;;;;;5062401;28;19924;-67
2023/01/10 07:04:29;;;;;;;;;;;20.90;42.30;;;;;;5059641;28;19973;-66
2023/01/10 07:06:56;;;;;;;;;;;20.90;42.60;;;;;;5067415;28;19928;-67
2023/01/10 07:09:23;;;;;;;;;;;21.00;42.80;;;;;;5063123;28;20365;-66
2023/01/10 07:11:50;;;;;;;;;;;21.00;42.80;;;;;;5060531;28;20620;-67
2023/01/10 07:14:17;;;;;;;;;;;21.10;43.00;;;;;;5058051;28;19963;-67
2023/01/10 07:16:44;;;;;;;;;;;21.10;43.00;;;;;;5059010;28;19934;-59
2023/01/10 07:19:12;;;;;;;;;;;21.10;43.00;;;;;;5064842;28;20015;-62
2023/01/10 07:21:40;;;;;;;;;;;21.20;43.10;;;;;;5065852;28;20015;-61
2023/01/10 07:24:07;;;;;;;;;;;21.20;43.10;;;;;;5064305;28;19928;-57
2023/01/10 07:26:34;;;;;;;;;;;21.30;43.20;;;;;;5063056;28;19935;-65
2023/01/10 07:29:02;;;;;;;;;;;21.30;43.20;;;;;;5064818;28;19974;-69
2023/01/10 07:31:30;;;;;;;;;;;21.30;43.20;;;;;;5059847;28;20295;-67
2023/01/10 07:33:56;;;;;;;;;;;21.40;43.10;;;;;;5061938;28;19973;-63
2023/01/10 07:36:23;;;;;;;;;;;21.40;42.90;;;;;;5061156;28;20654;-64
2023/01/10 07:38:50;;;;;;;;;;;21.50;42.70;;;;;;5064397;28;19943;-64
2023/01/10 07:41:17;;;;;;;;;;;21.50;42.40;;;;;;5061431;28;19939;-65
2023/01/10 07:43:46;;;;;;;;;;;21.50;42.20;;;;;;5063496;28;19927;-67
2023/01/10 07:46:13;;;;;;;;;;;21.50;42.10;;;;;;5063168;28;19974;-66
2023/01/10 07:48:40;;;;;;;;;;;21.60;42.00;;;;;;5064107;28;19970;-68
2023/01/10 07:51:08;;;;;;;;;;;21.60;41.80;;;;;;5062494;28;19932;-67
2023/01/10 07:53:35;;;;;;;;;;;21.60;41.90;;;;;;5063869;28;19960;-66
2023/01/10 07:56:06;;;;;;;;;;;21.60;42.20;;;;;;5064442;28;19929;-67
2023/01/10 07:58:33;;;;;;;;;;;21.60;42.60;;;;;;5065715;28;20437;-66
2023/01/10 08:01:01;;;;;;;;;;;21.70;42.80;;;;;;5062306;28;19919;-71
2023/01/10 08:03:35;;;;;;;;;;;21.70;42.90;;;;;;5064763;28;19974;-70
2023/01/10 08:06:05;;;;;;;;;;;21.70;42.80;;;;;;5063498;28;19924;-68
2023/01/10 08:08:32;;;;;;;;;;;21.70;42.60;;;;;;5063027;28;20261;-66
2023/01/10 08:11:01;;;;;;;;;;;21.80;42.70;;;;;;5057171;28;20320;-71
2023/01/10 08:13:29;;;;;;;;;;;21.80;42.60;;;;;;5064566;28;20037;-67
2023/01/10 08:15:56;;;;;;;;;;;21.80;42.60;;;;;;5062020;28;19943;-66
2023/01/10 08:18:24;;;;;;;;;;;21.80;42.50;;;;;;5065052;28;19931;-65
2023/01/10 08:20:52;;;;;;;;;;;21.90;43.00;;;;;;5062687;28;19928;-64
2023/01/10 08:23:19;;;;;;;;;;;21.90;42.60;;;;;;5061527;28;19974;-64
2023/01/10 08:25:46;;;;;;;;;;;21.90;42.60;;;;;;5047951;28;19925;-67
2023/01/10 08:28:13;;;;;;;;;;;21.90;41.70;;;;;;5061220;28;20015;-62
2023/01/10 08:30:41;;;;;;;;;;;21.90;41.40;;;;;;5064799;28;20015;-63
2023/01/10 08:33:09;;;;;;;;;;;21.90;41.30;;;;;;5064517;28;19938;-63
2023/01/10 08:35:37;;;;;;;;;;;21.90;41.20;;;;;;5064107;28;22280;-62
2023/01/10 08:38:04;;;;;;;;;;;21.90;41.10;;;;;;5060183;28;20062;-64
2023/01/10 08:40:31;;;;;;;;;;;21.80;41.00;;;;;;5057968;28;20866;-62
2023/01/10 08:43:00;;;;;;;;;;;21.90;41.10;;;;;;5059636;28;19928;-64
2023/01/10 08:45:27;;;;;;;;;;;21.90;41.20;;;;;;5060180;28;19928;-65
2023/01/10 08:47:54;;;;;;;;;;;21.90;41.20;;;;;;5065085;28;19928;-65
2023/01/10 08:50:22;;;;;;;;;;;21.90;41.30;;;;;;5058447;28;19975;-63
2023/01/10 08:52:50;;;;;;;;;;;21.90;41.20;;;;;;5055820;28;19956;-63
2023/01/10 08:55:17;;;;;;;;;;;21.90;41.20;;;;;;5056739;28;19975;-64
2023/01/10 08:57:44;;;;;;;;;;;21.90;41.10;;;;;;5057322;28;19978;-66
2023/01/10 09:00:12;;;;;;;;;;;21.90;41.20;;;;;;5063292;28;20016;-66
2023/01/10 09:02:39;;;;;;;;;;;21.90;41.20;;;;;;5067621;28;20034;-63
2023/01/10 09:05:06;;;;;;;;;;;21.90;41.40;;;;;;5062165;28;20455;-66
2023/01/10 09:07:48;;;;;;;;;;;21.90;41.20;;;;;;5070128;28;19974;-63
2023/01/10 09:10:15;;;;;;;;;;;21.90;41.20;;;;;;5070019;28;19928;-65
2023/01/10 09:12:54;;;;;;;;;;;21.90;41.20;;;;;;5068922;28;19926;-64
2023/01/10 09:15:22;;;;;;;;;;;21.90;41.10;;;;;;5064785;28;19927;-64
2023/01/10 09:17:51;;;;;;;;;;;21.90;41.10;;;;;;5062812;28;19928;-66
2023/01/10 09:20:18;;;;;;;;;;;22.00;41.20;;;;;;5070521;28;20007;-66
2023/01/10 09:22:45;;;;;;;;;;;22.00;41.10;;;;;;5066089;28;20042;-66
2023/01/10 09:25:12;;;;;;;;;;;22.00;41.10;;;;;;5059455;28;19971;-66
2023/01/10 09:27:39;;;;;;;;;;;22.00;41.00;;;;;;5062500;28;19928;-66
2023/01/10 09:30:07;;;;;;;;;;;22.00;41.00;;;;;;5061073;28;20402;-66
2023/01/10 09:32:34;;;;;;;;;;;22.00;41.00;;;;;;5062173;28;20011;-66
2023/01/10 09:35:01;;;;;;;;;;;22.00;40.90;;;;;;5060876;28;19928;-63
2023/01/10 09:37:28;;;;;;;;;;;22.00;40.80;;;;;;5062531;28;20806;-65
2023/01/10 09:39:56;;;;;;;;;;;22.10;40.80;;;;;;5045299;28;19929;-64
2023/01/10 09:42:37;;;;;;;;;;;22.10;40.70;;;;;;5056907;28;19952;-65
2023/01/10 09:45:16;;;;;;;;;;;22.10;40.70;;;;;;5065338;28;19973;-65
2023/01/10 09:47:56;;;;;;;;;;;22.10;40.60;;;;;;5066775;28;19920;-68
2023/01/10 09:50:30;;;;;;;;;;;22.20;40.60;;;;;;5061508;28;19924;-66
2023/01/10 09:53:17;;;;;;;;;;;22.20;40.50;;;;;;5064793;28;19971;-67
2023/01/10 09:55:47;;;;;;;;;;;22.20;40.40;;;;;;5062328;28;20314;-66
2023/01/10 09:58:16;;;;;;;;;;;22.20;40.40;;;;;;5062783;28;19939;-65
2023/01/10 10:00:49;;;;;;;;;;;22.20;40.40;;;;;;5063119;28;19970;-66
2023/01/10 10:03:36;;;;;;;;;;;22.20;40.40;;;;;;5063164;28;19924;-65
2023/01/10 10:06:08;;;;;;;;;;;22.20;40.30;;;;;;5047420;28;20015;-64
2023/01/10 10:08:39;;;;;;;;;;;22.30;40.30;;;;;;5061568;28;19928;-61
2023/01/10 10:11:17;;;;;;;;;;;22.30;40.30;;;;;;5066470;28;19951;-64
2023/01/10 10:14:05;;;;;;;;;;;22.30;40.20;;;;;;5065549;28;20398;-64
2023/01/10 10:16:51;;;;;;;;;;;22.30;40.20;;;;;;5062307;28;19928;-65
2023/01/10 10:19:24;;;;;;;;;;;22.30;40.10;;;;;;5061812;28;20832;-66
2023/01/10 10:22:11;;;;;;;;;;;22.30;40.10;;;;;;5056933;28;19924;-65
2023/01/10 10:24:58;;;;;;;;;;;22.40;40.20;;;;;;5063976;28;19921;-64
2023/01/10 10:27:39;;;;;;;;;;;22.30;40.10;;;;;;5061385;28;20269;-62
2023/01/10 10:30:26;;;;;;;;;;;22.40;40.10;;;;;;5046472;28;19920;-64
2023/01/10 10:33:05;;;;;;;;;;;22.40;40.00;;;;;;5049098;28;19982;-64
2023/01/10 10:35:40;;;;;;;;;;;22.40;40.00;;;;;;5059206;28;20310;-63
2023/01/10 10:38:19;;;;;;;;;;;22.40;39.90;;;;;;5060631;28;21174;-64
2023/01/10 10:40:47;;;;;;;;;;;22.40;39.90;;;;;;5059078;28;19950;-62
2023/01/10 10:43:19;;;;;;;;;;;22.40;39.90;;;;;;5060716;28;19935;-63
2023/01/10 10:45:55;;;;;;;;;;;22.40;39.90;;;;;;5062249;28;19961;-66
2023/01/10 10:48:26;;;;;;;;;;;22.40;39.90;;;;;;5061424;28;20376;-65
2023/01/10 10:51:12;;;;;;;;;;;22.40;39.90;;;;;;5061025;28;19988;-66
2023/01/10 10:53:40;;;;;;;;;;;22.40;39.90;;;;;;5047821;28;19928;-65
2023/01/10 10:56:10;;;;;;;;;;;22.40;39.90;;;;;;5062251;28;19920;-63
2023/01/10 10:58:39;;;;;;;;;;;22.40;39.90;;;;;;5061751;28;19960;-64
2023/01/10 11:01:10;;;;;;;;;;;22.40;39.90;;;;;;5064149;28;19920;-65
2023/01/10 11:03:41;;;;;;;;;;;22.40;39.90;;;;;;5070873;28;19932;-66
2023/01/10 11:06:08;;;;;;;;;;;22.40;39.90;;;;;;5048545;28;20373;-64
2023/01/10 11:08:40;;;;;;;;;;;22.40;40.00;;;;;;5068258;28;19959;-64
2023/01/10 11:11:16;;;;;;;;;;;22.40;40.00;;;;;;5069401;28;20015;-64
2023/01/10 11:13:51;;;;;;;;;;;22.40;40.00;;;;;;5068311;28;19934;-67
2023/01/10 11:16:25;;;;;;;;;;;22.40;39.90;;;;;;5068735;28;20011;-65
2023/01/10 11:19:09;;;;;;;;;;;22.40;39.80;;;;;;5066715;28;19920;-65
2023/01/10 11:21:40;;;;;;;;;;;22.40;39.70;;;;;;5064774;28;20417;-65
2023/01/10 11:24:19;;;;;;;;;;;22.40;39.70;;;;;;5063134;28;20442;-64
2023/01/10 11:26:47;;;;;;;;;;;22.40;39.70;;;;;;5063490;28;20010;-65
2023/01/10 11:29:16;;;;;;;;;;;22.40;39.70;;;;;;5065077;28;20257;-65
2023/01/10 11:31:44;;;;;;;;;;;22.40;39.80;;;;;;5065957;28;19929;-65
2023/01/10 11:34:27;;;;;;;;;;;22.30;39.80;;;;;;5065145;28;19920;-64
2023/01/10 11:36:56;;;;;;;;;;;22.30;39.80;;;;;;5068248;28;19943;-63
2023/01/10 11:39:24;;;;;;;;;;;22.30;39.90;;;;;;5067812;28;19934;-64
2023/01/10 11:41:52;;;;;;;;;;;22.20;39.90;;;;;;5066654;28;19972;-64
2023/01/10 11:44:24;;;;;;;;;;;22.20;39.80;;;;;;5066254;28;19936;-66
2023/01/10 11:47:00;;;;;;;;;;;22.20;39.90;;;;;;5065205;28;19986;-64
2023/01/10 11:49:33;;;;;;;;;;;22.20;39.90;;;;;;5060064;28;19942;-64
2023/01/10 11:52:03;;;;;;;;;;;22.20;40.00;;;;;;5055317;28;20494;-61
2023/01/10 11:54:31;;;;;;;;;;;22.20;40.00;;;;;;5061274;28;19931;-62
2023/01/10 11:57:06;;;;;;;;;;;22.20;40.10;;;;;;5042509;28;20010;-62
2023/01/10 11:59:33;;;;;;;;;;;22.20;40.20;;;;;;5047917;28;19921;-63
2023/01/10 12:02:03;;;;;;;;;;;22.20;40.30;;;;;;5062024;28;19943;-62
2023/01/10 12:04:33;;;;;;;;;;;22.20;40.20;;;;;;5062406;28;19929;-62
2023/01/10 12:07:07;;;;;;;;;;;22.10;40.10;;;;;;5064476;28;19925;-63
2023/01/10 12:09:42;;;;;;;;;;;22.10;40.20;;;;;;5062814;28;19920;-64
2023/01/10 12:12:14;;;;;;;;;;;22.10;40.20;;;;;;5060811;28;20017;-64
2023/01/10 12:14:42;;;;;;;;;;;22.10;40.10;;;;;;5064788;28;20360;-63
2023/01/10 12:17:13;;;;;;;;;;;22.10;40.10;;;;;;5059733;28;20399;-63
2023/01/10 12:19:40;;;;;;;;;;;22.10;40.10;;;;;;5055667;28;19928;-61
2023/01/10 12:22:11;;;;;;;;;;;22.10;40.10;;;;;;5064803;28;19974;-66
2023/01/10 12:24:39;;;;;;;;;;;22.10;40.60;;;;;;5063423;28;21213;-64
2023/01/10 12:27:09;;;;;;;;;;;22.10;40.00;;;;;;5059686;28;19930;-62
2023/01/10 12:29:39;;;;;;;;;;;22.10;40.00;;;;;;5062807;28;19924;-66
2023/01/10 12:32:13;;;;;;;;;;;22.10;40.00;;;;;;5067214;28;20110;-62
2023/01/10 12:34:44;;;;;;;;;;;22.10;39.90;;;;;;5062625;28;19935;-61
2023/01/10 12:37:23;;;;;;;;;;;22.10;39.80;;;;;;5065078;28;19928;-64
2023/01/10 12:39:54;;;;;;;;;;;22.10;39.80;;;;;;5066313;28;19964;-63
2023/01/10 12:45:25;;;;;;;;;;;22.10;40.00;;;;;;5062070;28;19928;-63
2023/01/10 12:48:05;;;;;;;;;;;22.10;40.00;;;;;;5065500;28;19939;-65
2023/01/10 12:50:34;;;;;;;;;;;22.10;40.10;;;;;;5067062;28;19931;-65
2023/01/10 12:53:13;;;;;;;;;;;22.10;40.70;;;;;;5063989;28;20022;-63
2023/01/10 12:55:42;;;;;;;;;;;22.10;40.10;;;;;;5066633;28;19939;-63
2023/01/10 12:58:16;;;;;;;;;;;22.10;40.10;;;;;;5044485;28;19935;-62
2023/01/10 13:00:45;;;;;;;;;;;22.10;40.10;;;;;;5061308;28;19939;-64
2023/01/10 13:03:18;;;;;;;;;;;22.10;40.10;;;;;;5066355;28;20303;-65
2023/01/10 13:05:48;;;;;;;;;;;22.20;40.40;;;;;;5067298;28;20011;-65
2023/01/10 13:08:17;;;;;;;;;;;22.20;40.70;;;;;;5056979;28;19928;-64
2023/01/10 13:10:46;;;;;;;;;;;22.20;40.60;;;;;;5059441;28;20376;-66
2023/01/10 13:13:19;;;;;;;;;;;22.20;40.60;;;;;;5061392;28;21540;-65
2023/01/10 13:15:51;;;;;;;;;;;22.20;40.50;;;;;;5065876;28;19928;-62
2023/01/10 13:18:24;;;;;;;;;;;22.20;40.50;;;;;;5066524;28;19928;-64
2023/01/10 13:21:02;;;;;;;;;;;22.20;40.50;;;;;;5043228;28;19928;-66
2023/01/10 13:23:32;;;;;;;;;;;22.20;40.40;;;;;;5067060;28;20023;-62
2023/01/10 13:26:01;;;;;;;;;;;22.30;40.50;;;;;;5066592;28;20077;-66
2023/01/10 13:28:29;;;;;;;;;;;22.30;40.50;;;;;;5068564;28;19927;-62
2023/01/10 13:30:59;;;;;;;;;;;22.30;40.50;;;;;;5068466;28;20359;-62
2023/01/10 13:33:28;;;;;;;;;;;22.30;40.40;;;;;;5066338;28;19929;-62
2023/01/10 13:35:57;;;;;;;;;;;22.30;40.30;;;;;;5065254;28;19935;-63
2023/01/10 13:38:28;;;;;;;;;;;22.30;40.30;;;;;;5062011;28;19938;-71
2023/01/10 13:40:56;;;;;;;;;;;22.30;40.20;;;;;;5059153;28;19928;-68
2023/01/10 13:43:33;;;;;;;;;;;22.30;40.30;;;;;;5067190;28;19920;-67
2023/01/10 13:46:21;;;;;;;;;;;22.30;40.20;;;;;;5065455;28;19929;-65
2023/01/10 13:49:07;;;;;;;;;;;22.30;40.20;;;;;;5051954;28;19978;-65
2023/01/10 13:51:35;;;;;;;;;;;22.30;40.10;;;;;;5047797;28;19975;-66
2023/01/10 13:54:03;;;;;;;;;;;22.30;40.10;;;;;;5066352;28;19938;-63
2023/01/10 13:56:36;;;;;;;;;;;22.40;40.10;;;;;;5060667;28;20007;-65
2023/01/10 14:04:47;;;;;;;;;;;22.30;40.00;;;;;;5068033;28;19931;-67
2023/01/10 14:07:23;;;;;;;;;;;22.40;40.00;;;;;;5068427;28;19928;-68
2023/01/10 14:09:50;;;;;;;;;;;22.40;40.00;;;;;;5064124;28;19928;-67
2023/01/10 14:12:25;;;;;;;;;;;22.30;40.00;;;;;;5064474;28;19928;-64
2023/01/10 14:15:01;;;;;;;;;;;22.40;40.10;;;;;;5067077;28;19950;-66
2023/01/10 14:17:32;;;;;;;;;;;22.40;40.10;;;;;;5060584;28;19924;-63
2023/01/10 14:20:06;;;;;;;;;;;22.40;40.20;;;;;;5064097;28;19928;-66
2023/01/10 14:22:35;;;;;;;;;;;22.40;40.30;;;;;;5058058;28;19928;-63
2023/01/10 14:25:14;;;;;;;;;;;22.40;40.50;;;;;;5060001;28;19927;-64
2023/01/10 14:27:44;;;;;;;;;;;22.40;40.30;;;;;;5061383;28;20070;-63
2023/01/10 14:30:16;;;;;;;;;;;22.40;40.30;;;;;;5062526;28;19952;-64
2023/01/10 14:32:46;;;;;;;;;;;22.40;40.40;;;;;;5066771;28;20023;-62
2023/01/10 14:35:15;;;;;;;;;;;22.40;40.40;;;;;;5068130;28;20630;-66
2023/01/10 14:37:45;;;;;;;;;;;22.40;40.60;;;;;;5044508;28;20384;-67
2023/01/10 14:40:28;;;;;;;;;;;22.40;40.40;;;;;;5069192;28;19924;-63
2023/01/10 14:42:57;;;;;;;;;;;22.40;40.50;;;;;;5062362;28;19924;-66
2023/01/10 14:45:33;;;;;;;;;;;22.40;40.50;;;;;;5063892;28;20011;-62
2023/01/10 14:48:22;;;;;;;;;;;22.40;40.40;;;;;;5064391;28;19956;-64
2023/01/10 14:50:49;;;;;;;;;;;22.40;40.30;;;;;;5059277;28;19928;-68